sensor_id;sensor_type;location;lat;lon;timestamp;temperature;humidity
19968;DHT22;10145;49.152;9.282;2022-10-18T04:00:21;13.50;99.90
19968;DHT22;10145;49.152;9.282;2022-10-18T04:02:47;13.50;99.90
19968;DHT22;10145;49.152;9.282;2022-10-18T04:05:12;13.50;99.90
19968;DHT22;10145;49.152;9.282;2022-10-18T04:07:38;13.50;99.90
19968;DHT22;10145;49.152;9.282;2022-10-18T04:10:04;13.50;99.90
19968;DHT22;10145;49.152;9.282;2022-10-18T04:12:30;13.60;99.90
19968;DHT22;10145;49.152;9.282;2022-10-18T04:14:55;13.60;99.90
19968;DHT22;10145;49.152;9.282;2022-10-18T04:17:21;13.60;99.90
19968;DHT22;10145;49.152;9.282;2022-10-18T04:19:46;13.60;99.90
19968;DHT22;10145;49.152;9.282;2022-10-18T04:22:13;13.70;99.90
19968;DHT22;10145;49.152;9.282;2022-10-18T04:24:39;13.70;99.90
19968;DHT22;10145;49.152;9.282;2022-10-18T04:27:06;13.70;99.90
19968;DHT22;10145;49.152;9.282;2022-10-18T04:29:32;13.70;99.90
19968;DHT22;10145;49.152;9.282;2022-10-18T04:31:58;13.80;99.90
19968;DHT22;10145;49.152;9.282;2022-10-18T04:34:23;13.80;99.90
19968;DHT22;10145;49.152;9.282;2022-10-18T04:36:49;13.80;99.90
19968;DHT22;10145;49.152;9.282;2022-10-18T04:39:15;13.90;99.90
19968;DHT22;10145;49.152;9.282;2022-10-18T04:41:40;13.90;99.90
19968;DHT22;10145;49.152;9.282;2022-10-18T04:44:06;13.90;99.90
19968;DHT22;10145;49.152;9.282;2022-10-18T04:46:32;13.90;99.90
19968;DHT22;10145;49.152;9.282;2022-10-18T04:48:57;13.80;99.90
19968;DHT22;10145;49.152;9.282;2022-10-18T04:51:25;13.90;99.90
19968;DHT22;10145;49.152;9.282;2022-10-18T04:53:51;14.00;99.90
19968;DHT22;10145;49.152;9.282;2022-10-18T04:56:16;13.90;99.90
19968;DHT22;10145;49.152;9.282;2022-10-18T04:58:42;13.80;99.90
19968;DHT22;10145;49.152;9.282;2022-10-18T05:01:08;13.90;99.90
19968;DHT22;10145;49.152;9.282;2022-10-18T05:03:33;13.90;99.90
19968;DHT22;10145;49.152;9.282;2022-10-18T05:05:59;13.90;99.90
19968;DHT22;10145;49.152;9.282;2022-10-18T05:08:25;14.00;99.90
19968;DHT22;10145;49.152;9.282;2022-10-18T05:10:50;13.90;99.90
19968;DHT22;10145;49.152;9.282;2022-10-18T05:13:16;13.90;99.90
19968;DHT22;10145;49.152;9.282;2022-10-18T05:15:41;13.90;99.90
19968;DHT22;10145;49.152;9.282;2022-10-18T05:18:07;13.80;99.90
19968;DHT22;10145;49.152;9.282;2022-10-18T05:20:32;13.80;99.90
19968;DHT22;10145;49.152;9.282;2022-10-18T05:22:58;13.80;99.90
19968;DHT22;10145;49.152;9.282;2022-10-18T05:25:24;13.80;99.90
19968;DHT22;10145;49.152;9.282;2022-10-18T05:27:49;13.70;99.90
19968;DHT22;10145;49.152;9.282;2022-10-18T05:30:15;13.70;99.90
19968;DHT22;10145;49.152;9.282;2022-10-18T05:32:40;13.70;99.90
19968;DHT22;10145;49.152;9.282;2022-10-18T05:35:06;13.70;99.90
19968;DHT22;10145;49.152;9.282;2022-10-18T05:37:32;13.70;99.90
19968;DHT22;10145;49.152;9.282;2022-10-18T05:39:57;13.70;99.90
19968;DHT22;10145;49.152;9.282;2022-10-18T05:42:23;13.70;99.90
19968;DHT22;10145;49.152;9.282;2022-10-18T05:44:48;13.70;99.90
19968;DHT22;10145;49.152;9.282;2022-10-18T05:47:14;13.80;99.90
19968;DHT22;10145;49.152;9.282;2022-10-18T05:49:39;13.70;99.90
19968;DHT22;10145;49.152;9.282;2022-10-18T05:52:05;13.70;99.90
19968;DHT22;10145;49.152;9.282;2022-10-18T05:54:30;13.70;99.90
19968;DHT22;10145;49.152;9.282;2022-10-18T05:56:56;13.70;99.90
19968;DHT22;10145;49.152;9.282;2022-10-18T05:59:21;13.60;99.90
19968;DHT22;10145;49.152;9.282;2022-10-18T06:01:47;13.60;99.90
19968;DHT22;10145;49.152;9.282;2022-10-18T06:04:12;13.50;99.90
19968;DHT22;10145;49.152;9.282;2022-10-18T06:06:39;13.50;99.90
19968;DHT22;10145;49.152;9.282;2022-10-18T06:09:05;13.50;99.90
19968;DHT22;10145;49.152;9.282;2022-10-18T06:11:31;13.50;99.90
19968;DHT22;10145;49.152;9.282;2022-10-18T06:13:57;13.60;99.90
19968;DHT22;10145;49.152;9.282;2022-10-18T06:16:23;13.60;99.90
19968;DHT22;10145;49.152;9.282;2022-10-18T06:18:50;13.70;99.90
19968;DHT22;10145;49.152;9.282;2022-10-18T06:21:17;13.80;99.90
19968;DHT22;10145;49.152;9.282;2022-10-18T06:23:47;13.90;99.90
19968;DHT22;10145;49.152;9.282;2022-10-18T06:26:12;13.90;99.90
19968;DHT22;10145;49.152;9.282;2022-10-18T06:28:38;14.00;99.90
19968;DHT22;10145;49.152;9.282;2022-10-18T06:31:04;14.40;99.90
19968;DHT22;10145;49.152;9.282;2022-10-18T06:33:31;14.40;99.90
19968;DHT22;10145;49.152;9.282;2022-10-18T06:35:59;14.50;99.90
19968;DHT22;10145;49.152;9.282;2022-10-18T06:38:25;14.70;99.90
19968;DHT22;10145;49.152;9.282;2022-10-18T06:40:51;14.90;99.90
19968;DHT22;10145;49.152;9.282;2022-10-18T06:43:17;15.00;99.90
19968;DHT22;10145;49.152;9.282;2022-10-18T06:45:43;15.20;99.90
19968;DHT22;10145;49.152;9.282;2022-10-18T06:48:08;15.30;99.90
19968;DHT22;10145;49.152;9.282;2022-10-18T06:50:34;15.50;99.90
19968;DHT22;10145;49.152;9.282;2022-10-18T06:53:00;15.60;99.90
19968;DHT22;10145;49.152;9.282;2022-10-18T06:55:26;15.70;99.90
19968;DHT22;10145;49.152;9.282;2022-10-18T06:57:52;15.70;99.90
19968;DHT22;10145;49.152;9.282;2022-10-18T07:00:18;15.80;99.90
19968;DHT22;10145;49.152;9.282;2022-10-18T07:02:43;15.80;99.90
19968;DHT22;10145;49.152;9.282;2022-10-18T07:05:09;15.90;99.90
19968;DHT22;10145;49.152;9.282;2022-10-18T07:07:36;16.00;99.90
19968;DHT22;10145;49.152;9.282;2022-10-18T07:10:02;16.10;99.90
19968;DHT22;10145;49.152;9.282;2022-10-18T07:12:28;16.00;99.90
19968;DHT22;10145;49.152;9.282;2022-10-18T07:14:54;16.00;99.90
19968;DHT22;10145;49.152;9.282;2022-10-18T07:17:20;16.10;99.90
19968;DHT22;10145;49.152;9.282;2022-10-18T07:19:46;16.30;99.90
19968;DHT22;10145;49.152;9.282;2022-10-18T07:22:11;16.30;99.90
19968;DHT22;10145;49.152;9.282;2022-10-18T07:24:37;16.30;99.90
19968;DHT22;10145;49.152;9.282;2022-10-18T07:27:02;16.40;99.90
19968;DHT22;10145;49.152;9.282;2022-10-18T07:29:28;16.40;99.90
19968;DHT22;10145;49.152;9.282;2022-10-18T07:31:53;16.50;99.90
19968;DHT22;10145;49.152;9.282;2022-10-18T07:34:19;16.70;99.90
19968;DHT22;10145;49.152;9.282;2022-10-18T07:36:44;16.60;99.90
19968;DHT22;10145;49.152;9.282;2022-10-18T07:39:10;16.60;99.90
19968;DHT22;10145;49.152;9.282;2022-10-18T07:41:36;16.50;99.90
19968;DHT22;10145;49.152;9.282;2022-10-18T07:44:03;16.60;99.90
19968;DHT22;10145;49.152;9.282;2022-10-18T07:46:28;16.70;99.90
19968;DHT22;10145;49.152;9.282;2022-10-18T07:48:54;16.80;99.90
19968;DHT22;10145;49.152;9.282;2022-10-18T07:51:20;16.80;99.90
19968;DHT22;10145;49.152;9.282;2022-10-18T07:53:45;16.80;99.90
19968;DHT22;10145;49.152;9.282;2022-10-18T07:56:14;16.80;99.90
19968;DHT22;10145;49.152;9.282;2022-10-18T07:58:46;16.80;99.90
19968;DHT22;10145;49.152;9.282;2022-10-18T08:01:13;17.00;99.90
19968;DHT22;10145;49.152;9.282;2022-10-18T08:03:39;16.90;99.90
19968;DHT22;10145;49.152;9.282;2022-10-18T08:06:07;17.00;99.90
19968;DHT22;10145;49.152;9.282;2022-10-18T08:08:36;17.10;99.90
19968;DHT22;10145;49.152;9.282;2022-10-18T08:11:08;17.20;99.90
19968;DHT22;10145;49.152;9.282;2022-10-18T08:13:34;17.30;99.90
19968;DHT22;10145;49.152;9.282;2022-10-18T08:16:02;17.30;99.90
19968;DHT22;10145;49.152;9.282;2022-10-18T08:18:27;17.30;99.90
19968;DHT22;10145;49.152;9.282;2022-10-18T08:20:53;17.50;99.90
19968;DHT22;10145;49.152;9.282;2022-10-18T08:23:19;17.50;99.90
19968;DHT22;10145;49.152;9.282;2022-10-18T08:25:44;17.60;99.90
19968;DHT22;10145;49.152;9.282;2022-10-18T08:28:10;17.60;99.90
19968;DHT22;10145;49.152;9.282;2022-10-18T08:30:38;17.60;99.90
19968;DHT22;10145;49.152;9.282;2022-10-18T08:33:04;17.60;99.90
19968;DHT22;10145;49.152;9.282;2022-10-18T08:35:30;17.70;99.90
19968;DHT22;10145;49.152;9.282;2022-10-18T08:37:56;17.50;99.90
19968;DHT22;10145;49.152;9.282;2022-10-18T08:40:22;17.50;99.90
19968;DHT22;10145;49.152;9.282;2022-10-18T08:43:01;17.70;99.90
19968;DHT22;10145;49.152;9.282;2022-10-18T08:45:28;17.80;99.90
19968;DHT22;10145;49.152;9.282;2022-10-18T08:47:55;17.90;99.90
19968;DHT22;10145;49.152;9.282;2022-10-18T08:50:32;18.00;99.90
19968;DHT22;10145;49.152;9.282;2022-10-18T08:53:19;17.90;99.90
19968;DHT22;10145;49.152;9.282;2022-10-18T08:56:06;17.80;99.90
19968;DHT22;10145;49.152;9.282;2022-10-18T08:58:40;17.70;99.90
19968;DHT22;10145;49.152;9.282;2022-10-18T09:01:20;17.60;99.90
19968;DHT22;10145;49.152;9.282;2022-10-18T09:17:51;17.50;99.90
19968;DHT22;10145;49.152;9.282;2022-10-18T09:20:27;17.40;99.90
19968;DHT22;10145;49.152;9.282;2022-10-18T09:31:13;17.70;99.90
19968;DHT22;10145;49.152;9.282;2022-10-18T09:33:57;17.90;99.90
19968;DHT22;10145;49.152;9.282;2022-10-18T09:36:32;18.10;99.90
19968;DHT22;10145;49.152;9.282;2022-10-18T09:39:09;18.20;99.90
19968;DHT22;10145;49.152;9.282;2022-10-18T09:41:52;18.30;99.90
19968;DHT22;10145;49.152;9.282;2022-10-18T09:46:49;18.50;99.90
19968;DHT22;10145;49.152;9.282;2022-10-18T09:49:37;18.70;99.90
19968;DHT22;10145;49.152;9.282;2022-10-18T09:52:11;18.80;99.90
19968;DHT22;10145;49.152;9.282;2022-10-18T09:54:43;18.80;99.90
19968;DHT22;10145;49.152;9.282;2022-10-18T09:59:56;18.80;99.90
19968;DHT22;10145;49.152;9.282;2022-10-18T10:02:23;18.70;99.90
19968;DHT22;10145;49.152;9.282;2022-10-18T10:04:50;18.70;99.90
19968;DHT22;10145;49.152;9.282;2022-10-18T10:07:19;18.60;99.90
19968;DHT22;10145;49.152;9.282;2022-10-18T10:09:47;18.60;99.90
19968;DHT22;10145;49.152;9.282;2022-10-18T10:12:36;18.60;99.90
19968;DHT22;10145;49.152;9.282;2022-10-18T10:15:16;18.80;99.90
19968;DHT22;10145;49.152;9.282;2022-10-18T10:18:19;19.20;99.90
19968;DHT22;10145;49.152;9.282;2022-10-18T10:20:52;19.70;99.90
19968;DHT22;10145;49.152;9.282;2022-10-18T10:23:25;20.10;99.90
19968;DHT22;10145;49.152;9.282;2022-10-18T10:26:22;20.40;99.90
19968;DHT22;10145;49.152;9.282;2022-10-18T10:28:49;20.70;99.90
19968;DHT22;10145;49.152;9.282;2022-10-18T10:36:46;20.70;99.90
19968;DHT22;10145;49.152;9.282;2022-10-18T10:39:14;20.60;99.90
19968;DHT22;10145;49.152;9.282;2022-10-18T10:41:49;20.60;99.90
19968;DHT22;10145;49.152;9.282;2022-10-18T10:44:18;20.30;99.90
19968;DHT22;10145;49.152;9.282;2022-10-18T10:46:44;20.30;99.90
19968;DHT22;10145;49.152;9.282;2022-10-18T10:49:19;20.10;99.90
19968;DHT22;10145;49.152;9.282;2022-10-18T10:51:53;20.20;99.90
19968;DHT22;10145;49.152;9.282;2022-10-18T10:54:23;20.50;99.90
19968;DHT22;10145;49.152;9.282;2022-10-18T10:59:50;21.10;99.90
19968;DHT22;10145;49.152;9.282;2022-10-18T11:02:35;21.00;99.90
19968;DHT22;10145;49.152;9.282;2022-10-18T11:05:22;20.90;99.90
19968;DHT22;10145;49.152;9.282;2022-10-18T11:07:51;20.90;99.90
19968;DHT22;10145;49.152;9.282;2022-10-18T11:10:22;20.70;99.90
19968;DHT22;10145;49.152;9.282;2022-10-18T11:13:04;20.70;99.90
19968;DHT22;10145;49.152;9.282;2022-10-18T11:15:41;20.90;99.90
19968;DHT22;10145;49.152;9.282;2022-10-18T11:18:19;20.70;99.90
19968;DHT22;10145;49.152;9.282;2022-10-18T11:23:20;20.10;99.90
19968;DHT22;10145;49.152;9.282;2022-10-18T11:26:12;20.10;99.90
19968;DHT22;10145;49.152;9.282;2022-10-18T11:29:11;20.40;99.90
19968;DHT22;10145;49.152;9.282;2022-10-18T11:32:11;20.50;99.90
19968;DHT22;10145;49.152;9.282;2022-10-18T11:40:48;20.30;99.90
19968;DHT22;10145;49.152;9.282;2022-10-18T11:51:02;20.70;99.90
19968;DHT22;10145;49.152;9.282;2022-10-18T11:54:00;20.70;99.90
19968;DHT22;10145;49.152;9.282;2022-10-18T11:59:23;20.40;99.90
19968;DHT22;10145;49.152;9.282;2022-10-18T12:02:08;20.30;99.90
19968;DHT22;10145;49.152;9.282;2022-10-18T12:04:47;20.20;99.90
19968;DHT22;10145;49.152;9.282;2022-10-18T12:07:16;20.10;99.90
19968;DHT22;10145;49.152;9.282;2022-10-18T12:09:45;20.30;99.90
19968;DHT22;10145;49.152;9.282;2022-10-18T12:12:14;20.80;99.90
19968;DHT22;10145;49.152;9.282;2022-10-18T12:14:53;21.20;99.90
19968;DHT22;10145;49.152;9.282;2022-10-18T12:17:33;21.30;99.90
19968;DHT22;10145;49.152;9.282;2022-10-18T12:20:05;21.80;99.90
19968;DHT22;10145;49.152;9.282;2022-10-18T12:22:39;22.20;99.90
19968;DHT22;10145;49.152;9.282;2022-10-18T12:25:11;22.70;99.90
19968;DHT22;10145;49.152;9.282;2022-10-18T12:27:45;23.00;99.90
19968;DHT22;10145;49.152;9.282;2022-10-18T12:30:22;22.80;99.90
19968;DHT22;10145;49.152;9.282;2022-10-18T12:33:02;23.00;99.90
19968;DHT22;10145;49.152;9.282;2022-10-18T12:35:31;22.70;99.90
19968;DHT22;10145;49.152;9.282;2022-10-18T12:38:22;22.40;99.90
19968;DHT22;10145;49.152;9.282;2022-10-18T12:40:51;22.10;99.90
19968;DHT22;10145;49.152;9.282;2022-10-18T12:43:30;21.70;99.90
19968;DHT22;10145;49.152;9.282;2022-10-18T12:46:02;21.80;99.90
19968;DHT22;10145;49.152;9.282;2022-10-18T12:48:34;21.80;99.90
19968;DHT22;10145;49.152;9.282;2022-10-18T12:51:18;21.80;99.90
19968;DHT22;10145;49.152;9.282;2022-10-18T12:53:54;21.80;99.90
19968;DHT22;10145;49.152;9.282;2022-10-18T13:09:24;21.70;99.90
19968;DHT22;10145;49.152;9.282;2022-10-18T13:11:53;22.00;99.90
19968;DHT22;10145;49.152;9.282;2022-10-18T13:17:30;22.80;99.90
19968;DHT22;10145;49.152;9.282;2022-10-18T13:23:00;23.00;99.90
19968;DHT22;10145;49.152;9.282;2022-10-18T13:25:50;23.00;99.90
19968;DHT22;10145;49.152;9.282;2022-10-18T13:28:19;23.20;99.90
19968;DHT22;10145;49.152;9.282;2022-10-18T13:30:56;23.30;99.90
19968;DHT22;10145;49.152;9.282;2022-10-18T13:33:38;23.20;99.90
19968;DHT22;10145;49.152;9.282;2022-10-18T13:38:46;22.60;99.90
19968;DHT22;10145;49.152;9.282;2022-10-18T13:41:30;22.40;99.90
19968;DHT22;10145;49.152;9.282;2022-10-18T13:44:43;22.50;99.90
19968;DHT22;10145;49.152;9.282;2022-10-18T13:52:26;21.90;99.90
19968;DHT22;10145;49.152;9.282;2022-10-18T14:03:44;21.50;99.90
19968;DHT22;10145;49.152;9.282;2022-10-18T14:06:35;21.50;99.90
19968;DHT22;10145;49.152;9.282;2022-10-18T14:09:15;21.30;99.90
19968;DHT22;10145;49.152;9.282;2022-10-18T14:12:06;21.10;99.90
19968;DHT22;10145;49.152;9.282;2022-10-18T14:14:46;21.00;99.90
19968;DHT22;10145;49.152;9.282;2022-10-18T14:17:35;20.80;99.90
19968;DHT22;10145;49.152;9.282;2022-10-18T14:20:28;20.70;99.90
19968;DHT22;10145;49.152;9.282;2022-10-18T14:23:25;20.60;99.90
19968;DHT22;10145;49.152;9.282;2022-10-18T14:26:05;20.40;99.90
19968;DHT22;10145;49.152;9.282;2022-10-18T14:28:33;20.40;99.90
19968;DHT22;10145;49.152;9.282;2022-10-18T14:31:00;20.40;99.90
19968;DHT22;10145;49.152;9.282;2022-10-18T14:33:36;20.40;99.90
19968;DHT22;10145;49.152;9.282;2022-10-18T14:36:07;20.50;99.90
19968;DHT22;10145;49.152;9.282;2022-10-18T14:38:38;20.60;99.90
19968;DHT22;10145;49.152;9.282;2022-10-18T14:43:47;20.50;99.90
19968;DHT22;10145;49.152;9.282;2022-10-18T14:46:21;20.40;99.90
19968;DHT22;10145;49.152;9.282;2022-10-18T14:48:59;20.30;99.90
19968;DHT22;10145;49.152;9.282;2022-10-18T14:51:28;20.20;99.90
19968;DHT22;10145;49.152;9.282;2022-10-18T14:53:54;20.10;99.90
19968;DHT22;10145;49.152;9.282;2022-10-18T14:56:27;20.10;99.90
19968;DHT22;10145;49.152;9.282;2022-10-18T14:58:55;20.00;99.90
19968;DHT22;10145;49.152;9.282;2022-10-18T15:01:24;20.00;99.90
19968;DHT22;10145;49.152;9.282;2022-10-18T15:04:15;20.00;99.90
19968;DHT22;10145;49.152;9.282;2022-10-18T15:06:43;20.00;99.90
19968;DHT22;10145;49.152;9.282;2022-10-18T15:09:10;20.00;99.90
19968;DHT22;10145;49.152;9.282;2022-10-18T15:11:38;20.00;99.90
19968;DHT22;10145;49.152;9.282;2022-10-18T15:14:12;20.10;99.90
19968;DHT22;10145;49.152;9.282;2022-10-18T15:16:39;20.00;99.90
19968;DHT22;10145;49.152;9.282;2022-10-18T15:19:28;20.20;99.90
19968;DHT22;10145;49.152;9.282;2022-10-18T15:26:52;20.00;99.90
19968;DHT22;10145;49.152;9.282;2022-10-18T15:29:20;20.00;99.90
19968;DHT22;10145;49.152;9.282;2022-10-18T15:31:48;19.80;99.90
19968;DHT22;10145;49.152;9.282;2022-10-18T15:34:24;19.60;99.90
19968;DHT22;10145;49.152;9.282;2022-10-18T15:36:54;19.50;99.90
19968;DHT22;10145;49.152;9.282;2022-10-18T15:39:25;19.40;99.90
19968;DHT22;10145;49.152;9.282;2022-10-18T15:46:55;19.30;99.90
19968;DHT22;10145;49.152;9.282;2022-10-18T15:54:54;19.20;99.90
19968;DHT22;10145;49.152;9.282;2022-10-18T15:57:20;19.00;99.90
19968;DHT22;10145;49.152;9.282;2022-10-18T15:59:52;18.90;99.90
19968;DHT22;10145;49.152;9.282;2022-10-18T16:02:19;19.10;99.90
19968;DHT22;10145;49.152;9.282;2022-10-18T16:04:45;18.90;99.90
19968;DHT22;10145;49.152;9.282;2022-10-18T16:07:12;18.70;99.90
19968;DHT22;10145;49.152;9.282;2022-10-18T16:09:38;18.70;99.90
19968;DHT22;10145;49.152;9.282;2022-10-18T16:12:03;18.60;99.90
19968;DHT22;10145;49.152;9.282;2022-10-18T16:14:29;18.50;99.90
19968;DHT22;10145;49.152;9.282;2022-10-18T16:16:58;18.50;99.90
19968;DHT22;10145;49.152;9.282;2022-10-18T16:19:25;18.40;99.90
19968;DHT22;10145;49.152;9.282;2022-10-18T16:21:52;18.50;99.90
19968;DHT22;10145;49.152;9.282;2022-10-18T16:24:18;18.40;99.90
19968;DHT22;10145;49.152;9.282;2022-10-18T16:26:44;18.40;99.90
19968;DHT22;10145;49.152;9.282;2022-10-18T16:29:15;18.40;99.90
19968;DHT22;10145;49.152;9.282;2022-10-18T16:31:43;18.30;99.90
19968;DHT22;10145;49.152;9.282;2022-10-18T16:34:08;18.30;99.90
19968;DHT22;10145;49.152;9.282;2022-10-18T16:36:35;18.10;99.90
19968;DHT22;10145;49.152;9.282;2022-10-18T16:39:03;18.20;99.90
19968;DHT22;10145;49.152;9.282;2022-10-18T16:41:31;18.20;99.90
19968;DHT22;10145;49.152;9.282;2022-10-18T16:43:57;18.10;99.90
19968;DHT22;10145;49.152;9.282;2022-10-18T16:46:30;18.10;99.90
19968;DHT22;10145;49.152;9.282;2022-10-18T16:48:56;18.10;99.90
19968;DHT22;10145;49.152;9.282;2022-10-18T16:51:21;18.10;99.90
19968;DHT22;10145;49.152;9.282;2022-10-18T16:53:47;18.20;99.90
19968;DHT22;10145;49.152;9.282;2022-10-18T16:56:27;17.80;99.90
19968;DHT22;10145;49.152;9.282;2022-10-18T16:58:54;17.80;99.90
19968;DHT22;10145;49.152;9.282;2022-10-18T17:01:22;17.90;99.90
19968;DHT22;10145;49.152;9.282;2022-10-18T17:03:49;17.80;99.90
19968;DHT22;10145;49.152;9.282;2022-10-18T17:06:24;17.70;99.90
19968;DHT22;10145;49.152;9.282;2022-10-18T17:08:51;17.60;99.90
19968;DHT22;10145;49.152;9.282;2022-10-18T17:11:18;17.60;99.90
19968;DHT22;10145;49.152;9.282;2022-10-18T17:13:44;17.60;99.90
19968;DHT22;10145;49.152;9.282;2022-10-18T17:16:31;17.40;99.90
19968;DHT22;10145;49.152;9.282;2022-10-18T17:19:00;17.30;99.90
19968;DHT22;10145;49.152;9.282;2022-10-18T17:21:26;17.20;99.90
19968;DHT22;10145;49.152;9.282;2022-10-18T17:23:52;17.20;99.90
19968;DHT22;10145;49.152;9.282;2022-10-18T17:26:20;17.20;99.90
19968;DHT22;10145;49.152;9.282;2022-10-18T17:28:50;17.20;99.90
19968;DHT22;10145;49.152;9.282;2022-10-18T17:31:16;17.10;99.90
19968;DHT22;10145;49.152;9.282;2022-10-18T17:33:42;17.10;99.90
19968;DHT22;10145;49.152;9.282;2022-10-18T17:36:07;17.00;99.90
19968;DHT22;10145;49.152;9.282;2022-10-18T17:38:33;17.00;99.90
19968;DHT22;10145;49.152;9.282;2022-10-18T17:40:58;17.00;99.90
19968;DHT22;10145;49.152;9.282;2022-10-18T17:43:24;16.90;99.90
19968;DHT22;10145;49.152;9.282;2022-10-18T17:45:54;16.80;99.90
19968;DHT22;10145;49.152;9.282;2022-10-18T17:48:20;16.80;99.90
19968;DHT22;10145;49.152;9.282;2022-10-18T17:50:45;16.80;99.90
19968;DHT22;10145;49.152;9.282;2022-10-18T17:53:11;16.70;99.90
19968;DHT22;10145;49.152;9.282;2022-10-18T17:55:37;16.80;99.90
19968;DHT22;10145;49.152;9.282;2022-10-18T17:58:03;16.80;99.90
19968;DHT22;10145;49.152;9.282;2022-10-18T18:00:29;16.80;99.90
19968;DHT22;10145;49.152;9.282;2022-10-18T18:02:58;16.60;99.90
19968;DHT22;10145;49.152;9.282;2022-10-18T18:05:24;16.60;99.90
19968;DHT22;10145;49.152;9.282;2022-10-18T18:07:49;16.60;99.90
19968;DHT22;10145;49.152;9.282;2022-10-18T18:10:15;16.60;99.90
19968;DHT22;10145;49.152;9.282;2022-10-18T18:12:44;16.50;99.90
19968;DHT22;10145;49.152;9.282;2022-10-18T18:15:11;16.40;99.90
19968;DHT22;10145;49.152;9.282;2022-10-18T18:17:36;16.40;99.90
19968;DHT22;10145;49.152;9.282;2022-10-18T18:20:02;16.40;99.90
19968;DHT22;10145;49.152;9.282;2022-10-18T18:22:28;16.30;99.90
19968;DHT22;10145;49.152;9.282;2022-10-18T18:24:53;16.40;99.90
19968;DHT22;10145;49.152;9.282;2022-10-18T18:27:19;16.30;99.90
19968;DHT22;10145;49.152;9.282;2022-10-18T18:29:44;16.20;99.90
19968;DHT22;10145;49.152;9.282;2022-10-18T18:32:10;16.20;99.90
19968;DHT22;10145;49.152;9.282;2022-10-18T18:34:35;16.30;99.90
19968;DHT22;10145;49.152;9.282;2022-10-18T18:37:02;16.20;99.90
19968;DHT22;10145;49.152;9.282;2022-10-18T18:39:27;16.10;99.90
19968;DHT22;10145;49.152;9.282;2022-10-18T18:42:00;16.10;99.90
19968;DHT22;10145;49.152;9.282;2022-10-18T18:44:26;16.00;99.90
19968;DHT22;10145;49.152;9.282;2022-10-18T18:46:52;15.90;99.90
19968;DHT22;10145;49.152;9.282;2022-10-18T18:49:17;15.80;99.90
19968;DHT22;10145;49.152;9.282;2022-10-18T18:51:43;15.80;99.90
19968;DHT22;10145;49.152;9.282;2022-10-18T18:54:10;15.70;99.90
19968;DHT22;10145;49.152;9.282;2022-10-18T18:56:37;15.70;99.90
19968;DHT22;10145;49.152;9.282;2022-10-18T18:59:03;15.70;99.90
19968;DHT22;10145;49.152;9.282;2022-10-18T19:01:31;15.70;99.90
19968;DHT22;10145;49.152;9.282;2022-10-18T19:03:58;15.60;99.90
19968;DHT22;10145;49.152;9.282;2022-10-18T19:08:55;15.50;99.90
19968;DHT22;10145;49.152;9.282;2022-10-18T19:11:28;15.40;99.90
19968;DHT22;10145;49.152;9.282;2022-10-18T19:13:55;15.30;99.90
19968;DHT22;10145;49.152;9.282;2022-10-18T19:16:31;15.20;99.90
19968;DHT22;10145;49.152;9.282;2022-10-18T19:19:20;15.10;99.90
19968;DHT22;10145;49.152;9.282;2022-10-18T19:21:47;15.10;99.90
19968;DHT22;10145;49.152;9.282;2022-10-18T19:24:13;15.10;99.90
19968;DHT22;10145;49.152;9.282;2022-10-18T19:26:42;14.90;99.90
19968;DHT22;10145;49.152;9.282;2022-10-18T19:29:33;14.90;99.90
19968;DHT22;10145;49.152;9.282;2022-10-18T19:32:02;14.80;99.90
19968;DHT22;10145;49.152;9.282;2022-10-18T19:34:29;14.90;99.90
19968;DHT22;10145;49.152;9.282;2022-10-18T19:36:55;14.80;99.90
19968;DHT22;10145;49.152;9.282;2022-10-18T19:39:27;14.80;99.90
19968;DHT22;10145;49.152;9.282;2022-10-18T19:41:54;14.80;99.90
19968;DHT22;10145;49.152;9.282;2022-10-18T19:44:21;14.80;99.90
19968;DHT22;10145;49.152;9.282;2022-10-18T19:46:47;14.70;99.90
19968;DHT22;10145;49.152;9.282;2022-10-18T19:49:13;14.70;99.90
19968;DHT22;10145;49.152;9.282;2022-10-18T19:51:39;14.50;99.90
19968;DHT22;10145;49.152;9.282;2022-10-18T19:54:05;14.60;99.90
19968;DHT22;10145;49.152;9.282;2022-10-18T19:56:30;14.50;99.90
19968;DHT22;10145;49.152;9.282;2022-10-18T19:58:56;14.30;99.90
19968;DHT22;10145;49.152;9.282;2022-10-18T20:01:23;14.20;99.90
19968;DHT22;10145;49.152;9.282;2022-10-18T20:03:48;14.10;99.90
19968;DHT22;10145;49.152;9.282;2022-10-18T20:06:14;14.10;99.90
19968;DHT22;10145;49.152;9.282;2022-10-18T20:08:40;14.00;99.90
19968;DHT22;10145;49.152;9.282;2022-10-18T20:11:08;14.00;99.90
19968;DHT22;10145;49.152;9.282;2022-10-18T20:13:34;14.00;99.90
19968;DHT22;10145;49.152;9.282;2022-10-18T20:16:01;14.00;99.90
19968;DHT22;10145;49.152;9.282;2022-10-18T20:18:30;13.90;99.90
19968;DHT22;10145;49.152;9.282;2022-10-18T20:20:55;13.90;99.90
19968;DHT22;10145;49.152;9.282;2022-10-18T20:23:21;13.90;99.90
19968;DHT22;10145;49.152;9.282;2022-10-18T20:28:22;13.80;99.90
19968;DHT22;10145;49.152;9.282;2022-10-18T20:33:26;13.80;99.90
19968;DHT22;10145;49.152;9.282;2022-10-18T20:35:51;13.70;99.90
19968;DHT22;10145;49.152;9.282;2022-10-18T20:38:17;13.60;99.90
19968;DHT22;10145;49.152;9.282;2022-10-18T20:40:42;13.50;99.90
19968;DHT22;10145;49.152;9.282;2022-10-18T20:43:08;13.60;99.90
19968;DHT22;10145;49.152;9.282;2022-10-18T20:45:33;13.40;99.90
19968;DHT22;10145;49.152;9.282;2022-10-18T20:47:59;13.40;99.90
19968;DHT22;10145;49.152;9.282;2022-10-18T20:50:24;13.30;99.90
19968;DHT22;10145;49.152;9.282;2022-10-18T20:52:50;13.30;99.90
19968;DHT22;10145;49.152;9.282;2022-10-18T20:55:16;13.20;99.90
19968;DHT22;10145;49.152;9.282;2022-10-18T20:57:43;13.20;99.90
19968;DHT22;10145;49.152;9.282;2022-10-18T21:00:09;13.20;99.90
19968;DHT22;10145;49.152;9.282;2022-10-18T21:02:36;13.20;99.90
19968;DHT22;10145;49.152;9.282;2022-10-18T21:08:23;13.10;99.90
19968;DHT22;10145;49.152;9.282;2022-10-18T21:10:49;13.10;99.90
19968;DHT22;10145;49.152;9.282;2022-10-18T21:13:15;13.00;99.90
19968;DHT22;10145;49.152;9.282;2022-10-18T21:15:40;13.00;99.90
19968;DHT22;10145;49.152;9.282;2022-10-18T21:18:06;13.00;99.90
19968;DHT22;10145;49.152;9.282;2022-10-18T21:20:31;13.00;99.90
19968;DHT22;10145;49.152;9.282;2022-10-18T21:22:57;13.00;99.90
19968;DHT22;10145;49.152;9.282;2022-10-18T21:25:22;13.00;99.90
19968;DHT22;10145;49.152;9.282;2022-10-18T21:27:48;13.00;99.90
19968;DHT22;10145;49.152;9.282;2022-10-18T21:30:14;13.00;99.90
19968;DHT22;10145;49.152;9.282;2022-10-18T21:32:39;13.00;99.90
19968;DHT22;10145;49.152;9.282;2022-10-18T21:35:05;13.00;99.90
19968;DHT22;10145;49.152;9.282;2022-10-18T21:37:31;12.90;99.90
19968;DHT22;10145;49.152;9.282;2022-10-18T21:39:56;13.00;99.90
19968;DHT22;10145;49.152;9.282;2022-10-18T21:42:22;13.00;99.90
19968;DHT22;10145;49.152;9.282;2022-10-18T21:44:47;12.90;99.90